Time;durP1;ratioP1;P1;durP2;ratioP2;P2;SDS_P1;SDS_P2;PMS_P1;PMS_P2;Temp;Humidity;BMP_temperature;BMP_pressure;BME280_temperature;BME280_humidity;BME280_pressure;Samples;Min_cycle;Max_cycle;Signal;HPM_P1;HPM_P2
2023/10/15 00:01:43;;;;;;;2.03;1.12;;;;;;;17.88;72.01;99075.81;4476095;32;34704;-80
2023/10/15 00:04:12;;;;;;;3.10;1.40;;;;;;;18.07;71.63;99075.69;4476171;32;34007;-79
2023/10/15 00:06:41;;;;;;;3.95;2.05;;;;;;;17.94;72.45;99066.75;4475935;32;33802;-79
2023/10/15 00:09:10;;;;;;;2.65;1.10;;;;;;;17.90;72.34;99081.84;4481807;32;33034;-80
2023/10/15 00:11:41;;;;;;;2.62;1.12;;;;;;;17.69;73.84;99086.41;4476259;32;33497;-80
2023/10/15 00:14:09;;;;;;;3.33;1.63;;;;;;;17.96;72.39;99090.31;4476102;32;33080;-79
2023/10/15 00:16:38;;;;;;;2.58;1.00;;;;;;;17.88;71.33;99107.31;4476256;32;33643;-80
2023/10/15 00:19:10;;;;;;;1.55;0.90;;;;;;;17.81;69.45;99123.47;4473009;32;88257;-79
2023/10/15 00:21:40;;;;;;;3.70;0.77;;;;;;;17.41;70.10;99122.81;4481676;32;33432;-81
2023/10/15 00:24:10;;;;;;;0.80;0.70;;;;;;;17.43;70.10;99132.31;4476704;32;33580;-78
2023/10/15 00:26:41;;;;;;;1.75;1.00;;;;;;;17.61;70.07;99137.53;4476071;32;33508;-80
2023/10/15 00:29:10;;;;;;;1.87;0.80;;;;;;;17.35;71.88;99146.72;4475904;32;33071;-79
2023/10/15 00:31:41;;;;;;;1.58;1.08;;;;;;;17.33;72.89;99159.91;4481589;31;34031;-78
2023/10/15 00:34:12;;;;;;;1.98;1.10;;;;;;;17.18;74.28;99163.28;4475954;32;34389;-80
2023/10/15 00:36:41;;;;;;;1.45;0.80;;;;;;;17.11;75.40;99159.28;4475815;32;33911;-78
2023/10/15 00:39:19;;;;;;;2.33;1.00;;;;;;;17.13;75.51;99144.31;4475530;32;33613;-78
2023/10/15 00:41:53;;;;;;;1.23;0.88;;;;;;;17.03;75.65;99138.66;4473987;32;33326;-79
2023/10/15 00:44:22;;;;;;;1.30;0.90;;;;;;;16.95;76.18;99143.44;4479100;32;34135;-81
2023/10/15 00:46:55;;;;;;;1.40;1.25;;;;;;;16.92;76.55;99138.34;4459983;32;33625;-81
2023/10/15 00:49:26;;;;;;;0.75;0.73;;;;;;;17.03;76.00;99149.13;4461085;32;33136;-79
2023/10/15 00:52:01;;;;;;;1.48;1.02;;;;;;;17.22;73.96;99155.19;4459724;32;33854;-80
2023/10/15 00:54:33;;;;;;;1.98;1.00;;;;;;;17.16;74.13;99145.00;4460376;32;33628;-79
2023/10/15 00:57:25;;;;;;;1.25;0.95;;;;;;;16.97;74.92;99157.31;4466462;32;33940;-78
2023/10/15 00:59:58;;;;;;;0.68;0.68;;;;;;;17.28;72.96;99167.16;4461332;32;33459;-79
2023/10/15 01:02:30;;;;;;;0.62;0.50;;;;;;;17.30;72.63;99170.56;4460724;32;33315;-79
2023/10/15 01:05:00;;;;;;;0.88;0.73;;;;;;;16.99;72.67;99161.56;4460933;32;33180;-78
2023/10/15 01:07:42;;;;;;;1.20;0.60;;;;;;;17.20;71.51;99169.28;4460783;32;32944;-79
2023/10/15 01:10:28;;;;;;;0.60;0.60;;;;;;;16.84;72.71;99172.75;4466190;32;33779;-78
2023/10/15 01:13:10;;;;;;;1.35;0.90;;;;;;;16.92;72.21;99175.88;4466391;32;34487;-79
2023/10/15 01:15:42;;;;;;;0.70;0.70;;;;;;;16.85;71.69;99166.59;4460815;32;33702;-77
2023/10/15 01:18:12;;;;;;;0.50;0.50;;;;;;;16.62;72.96;99160.66;4460542;32;33632;-79
2023/10/15 01:20:43;;;;;;;0.68;0.60;;;;;;;16.48;72.93;99163.06;4460497;32;34087;-79
2023/10/15 01:23:28;;;;;;;0.82;0.70;;;;;;;16.51;72.99;99160.28;4466313;32;33637;-80
2023/10/15 01:26:00;;;;;;;0.95;0.60;;;;;;;16.40;73.05;99150.28;4465749;32;34326;-79
2023/10/15 01:28:37;;;;;;;0.52;0.52;;;;;;;16.23;72.92;99157.22;4461375;32;33815;-80
2023/10/15 01:31:06;;;;;;;0.70;0.70;;;;;;;16.29;73.03;99151.72;4463543;32;34206;-79
2023/10/15 01:33:46;;;;;;;0.60;0.60;;;;;;;15.88;74.80;99151.78;4465218;32;33852;-78
2023/10/15 01:36:18;;;;;;;0.60;0.60;;;;;;;16.44;72.50;99164.09;4476269;32;33639;-80
2023/10/15 01:38:50;;;;;;;0.85;0.77;;;;;;;16.50;72.62;99170.81;4471860;32;33879;-80
2023/10/15 01:41:22;;;;;;;1.20;0.50;;;;;;;16.52;72.89;99171.59;4468988;32;33462;-79
2023/10/15 01:43:53;;;;;;;1.05;0.55;;;;;;;16.21;74.40;99178.22;4465286;32;33524;-80
2023/10/15 01:46:40;;;;;;;0.60;0.55;;;;;;;16.28;74.16;99168.31;4461731;32;33992;-79
2023/10/15 01:49:09;;;;;;;0.50;0.50;;;;;;;15.91;76.56;99178.66;4468834;32;33527;-79
2023/10/15 01:51:40;;;;;;;0.50;0.50;;;;;;;16.42;73.90;99186.88;4469159;32;33690;-78
2023/10/15 01:54:09;;;;;;;0.50;0.50;;;;;;;16.63;73.80;99196.38;4461455;32;34428;-79
2023/10/15 01:56:40;;;;;;;0.73;0.60;;;;;;;16.40;74.68;99201.81;4460701;32;34630;-79
2023/10/15 01:59:09;;;;;;;0.55;0.55;;;;;;;16.51;74.92;99198.72;4464503;32;31638;-79
2023/10/15 02:01:40;;;;;;;0.40;0.40;;;;;;;16.54;74.40;99193.34;4477247;32;33695;-80
2023/10/15 02:04:16;;;;;;;0.57;0.57;;;;;;;16.10;76.84;99189.16;4467987;32;33271;-79
2023/10/15 02:06:44;;;;;;;0.85;0.62;;;;;;;16.79;72.97;99187.84;4469315;32;33572;-79
2023/10/15 02:09:21;;;;;;;0.50;0.50;;;;;;;16.67;73.77;99186.59;4463515;32;34413;-78
2023/10/15 02:11:54;;;;;;;0.50;0.50;;;;;;;16.34;75.36;99184.63;4464337;32;32913;-78
2023/10/15 02:14:27;;;;;;;0.60;0.60;;;;;;;16.21;75.98;99183.44;4470901;32;33691;-76
2023/10/15 02:16:59;;;;;;;0.73;0.73;;;;;;;16.41;75.39;99177.34;4467962;32;33767;-77
2023/10/15 02:19:34;;;;;;;0.60;0.60;;;;;;;16.27;76.78;99177.94;4463765;32;33791;-79
2023/10/15 02:22:06;;;;;;;0.65;0.65;;;;;;;15.99;78.27;99165.22;4461749;32;34189;-78
2023/10/15 02:24:35;;;;;;;0.60;0.60;;;;;;;16.16;77.16;99175.81;4463855;32;33906;-78
2023/10/15 02:27:06;;;;;;;1.02;0.70;;;;;;;15.90;78.49;99166.50;4477255;32;33784;-79
2023/10/15 02:29:37;;;;;;;0.50;0.50;;;;;;;15.62;79.77;99177.25;4467299;32;32872;-78
2023/10/15 02:32:20;;;;;;;1.15;0.60;;;;;;;15.97;78.45;99174.91;4451012;32;30633;-77
2023/10/15 02:34:51;;;;;;;1.45;0.75;;;;;;;15.75;79.43;99180.22;4464067;32;33521;-77
2023/10/15 02:37:27;;;;;;;0.70;0.70;;;;;;;15.53;80.57;99186.31;4477530;32;34443;-78
2023/10/15 02:39:59;;;;;;;1.48;0.70;;;;;;;15.57;80.89;99198.34;4479682;32;33986;-78
2023/10/15 02:42:34;;;;;;;0.68;0.68;;;;;;;15.50;81.24;99201.28;4466199;32;32993;-78
2023/10/15 02:45:07;;;;;;;0.68;0.68;;;;;;;15.77;80.10;99202.78;4462922;32;33640;-78
2023/10/15 02:47:42;;;;;;;1.10;0.70;;;;;;;15.72;79.55;99204.72;4461174;32;34145;-78
2023/10/15 02:50:17;;;;;;;1.55;0.65;;;;;;;15.60;80.27;99214.81;4469336;32;33558;-78
2023/10/15 02:52:48;;;;;;;1.20;0.88;;;;;;;15.44;81.79;99214.59;4452370;32;33577;-79
2023/10/15 02:55:26;;;;;;;0.85;0.77;;;;;;;15.65;80.89;99215.47;4462225;32;33428;-79
2023/10/15 02:58:02;;;;;;;0.60;0.60;;;;;;;15.62;81.19;99224.31;4468062;32;33688;-79
2023/10/15 03:00:32;;;;;;;0.73;0.70;;;;;;;15.92;79.07;99224.84;4465471;32;34104;-78
2023/10/15 03:03:08;;;;;;;0.80;0.80;;;;;;;15.62;80.59;99226.91;4461366;32;34214;-78
2023/10/15 03:05:41;;;;;;;0.60;0.60;;;;;;;15.81;79.16;99226.19;4474207;32;34317;-78
2023/10/15 03:08:18;;;;;;;0.85;0.77;;;;;;;15.79;79.02;99229.72;4472088;32;34349;-78
2023/10/15 03:10:47;;;;;;;0.77;0.70;;;;;;;15.75;78.91;99230.78;4472261;32;33798;-78
2023/10/15 03:13:18;;;;;;;0.90;0.90;;;;;;;15.70;79.53;99224.88;4474334;32;33612;-79
2023/10/15 03:15:49;;;;;;;0.73;0.73;;;;;;;15.91;77.99;99217.03;4470825;32;33100;-78
2023/10/15 03:18:23;;;;;;;1.15;0.90;;;;;;;15.91;77.70;99209.19;4470271;32;33199;-79
2023/10/15 03:21:00;;;;;;;1.15;0.70;;;;;;;15.83;78.49;99206.06;4465493;32;33479;-77
2023/10/15 03:23:29;;;;;;;1.05;0.95;;;;;;;15.73;78.38;99200.37;4463750;32;33019;-78
2023/10/15 03:25:58;;;;;;;1.25;0.88;;;;;;;15.53;79.00;99198.53;4447373;32;32633;-79
2023/10/15 03:28:28;;;;;;;1.77;1.05;;;;;;;15.40;79.40;99194.75;4467174;32;33740;-78
2023/10/15 03:30:58;;;;;;;0.85;0.80;;;;;;;15.35;80.25;99197.53;4464197;32;32868;-78
2023/10/15 03:33:30;;;;;;;2.17;0.90;;;;;;;15.62;78.10;99207.78;4464221;32;33550;-79
2023/10/15 03:36:03;;;;;;;2.40;0.75;;;;;;;15.45;78.86;99205.84;4471290;32;34003;-78
2023/10/15 03:38:34;;;;;;;0.80;0.80;;;;;;;15.48;78.71;99214.41;4463922;32;33549;-80
2023/10/15 03:41:21;;;;;;;0.80;0.80;;;;;;;15.39;78.90;99219.16;4468102;32;33650;-80
2023/10/15 03:43:51;;;;;;;0.80;0.80;;;;;;;15.36;79.09;99204.44;4464427;32;33456;-78
2023/10/15 03:46:20;;;;;;;1.85;1.25;;;;;;;15.44;78.41;99212.84;4460459;32;33338;-80
2023/10/15 03:48:50;;;;;;;1.75;0.80;;;;;;;15.50;78.47;99214.34;4461477;32;33604;-79
2023/10/15 03:51:21;;;;;;;1.00;0.75;;;;;;;15.30;78.74;99218.63;4460615;32;34615;-79
2023/10/15 03:53:50;;;;;;;1.42;0.90;;;;;;;15.27;78.44;99210.91;4466876;32;33246;-78
2023/10/15 03:56:27;;;;;;;1.48;0.90;;;;;;;14.99;80.13;99208.53;4462952;32;34465;-80
2023/10/15 03:58:57;;;;;;;1.95;1.05;;;;;;;15.41;77.47;99217.34;4462590;32;33561;-80
2023/10/15 04:01:27;;;;;;;0.88;0.88;;;;;;;14.88;78.18;99200.25;4464613;32;33987;-79
2023/10/15 04:04:00;;;;;;;2.00;0.95;;;;;;;14.98;76.99;99198.13;4468234;32;33910;-78
2023/10/15 04:06:30;;;;;;;1.02;0.82;;;;;;;15.11;73.29;99191.53;4466426;32;33637;-78
2023/10/15 04:09:10;;;;;;;1.60;1.20;;;;;;;14.90;72.56;99190.59;4461885;32;34708;-79
2023/10/15 04:11:42;;;;;;;1.00;0.90;;;;;;;15.10;72.77;99190.69;4460836;32;33731;-79
2023/10/15 04:14:17;;;;;;;1.35;1.10;;;;;;;14.90;72.78;99188.84;4461512;32;33458;-79
2023/10/15 04:16:47;;;;;;;1.15;0.80;;;;;;;14.77;72.72;99184.16;4466633;32;33750;-78
2023/10/15 04:19:17;;;;;;;0.90;0.90;;;;;;;14.98;71.14;99191.19;4461151;32;33725;-79
2023/10/15 04:21:47;;;;;;;1.00;0.90;;;;;;;14.77;72.69;99189.41;4469811;32;33533;-79
2023/10/15 04:24:21;;;;;;;0.95;0.80;;;;;;;14.84;72.41;99198.69;4469996;32;33168;-79
2023/10/15 04:26:51;;;;;;;3.42;1.58;;;;;;;14.70;72.75;99209.66;4460850;32;34417;-79
2023/10/15 04:29:22;;;;;;;0.95;0.90;;;;;;;14.69;72.57;99210.53;4466510;32;33739;-80
2023/10/15 04:32:00;;;;;;;4.57;1.23;;;;;;;14.76;72.32;99226.84;4463363;32;32837;-80
2023/10/15 04:34:29;;;;;;;1.33;0.93;;;;;;;14.70;72.41;99227.94;4459715;32;33488;-79
2023/10/15 04:36:59;;;;;;;1.05;0.95;;;;;;;14.41;72.19;99232.44;4460954;32;33781;-78
2023/10/15 04:39:30;;;;;;;1.10;0.98;;;;;;;14.29;71.77;99230.25;4464843;32;34867;-80
2023/10/15 04:42:02;;;;;;;1.35;1.25;;;;;;;13.97;72.39;99203.56;4470373;32;33703;-78
2023/10/15 04:44:33;;;;;;;1.52;1.27;;;;;;;13.70;73.53;99212.31;4466355;32;34551;-80
2023/10/15 04:47:05;;;;;;;2.00;1.30;;;;;;;13.71;73.08;99211.44;4463636;32;32996;-79
2023/10/15 04:49:34;;;;;;;2.62;0.90;;;;;;;13.44;73.60;99198.41;4461376;32;34053;-78
2023/10/15 04:52:13;;;;;;;3.55;1.73;;;;;;;13.74;72.12;99209.56;4467589;32;35294;-79
2023/10/15 04:54:43;;;;;;;1.17;1.10;;;;;;;13.92;71.79;99233.28;4477197;32;33692;-79
2023/10/15 04:57:12;;;;;;;0.80;0.80;;;;;;;13.89;71.31;99236.84;4464717;32;34504;-79
2023/10/15 04:59:43;;;;;;;1.02;0.90;;;;;;;13.96;71.54;99246.16;4465479;32;34647;-79
2023/10/15 05:02:12;;;;;;;1.87;1.48;;;;;;;13.98;71.31;99249.59;4464242;32;33532;-80
2023/10/15 05:04:40;;;;;;;1.50;0.85;;;;;;;14.18;70.32;99266.31;4465659;32;34156;-80
2023/10/15 05:07:09;;;;;;;1.12;0.90;;;;;;;14.17;69.40;99281.09;4460615;32;33646;-80
2023/10/15 05:09:40;;;;;;;1.92;1.10;;;;;;;13.88;70.35;99282.09;4461969;32;33973;-79
2023/10/15 05:12:08;;;;;;;0.80;0.80;;;;;;;13.81;70.88;99285.81;4460713;32;33753;-81
2023/10/15 05:14:37;;;;;;;1.37;1.10;;;;;;;14.00;70.33;99273.00;4469336;32;34101;-79
2023/10/15 05:17:07;;;;;;;0.95;0.88;;;;;;;13.84;69.81;99270.06;4475085;32;34540;-80
2023/10/15 05:19:37;;;;;;;1.00;0.93;;;;;;;13.70;70.57;99264.44;4465992;32;33609;-79
2023/10/15 05:22:06;;;;;;;1.20;0.90;;;;;;;13.64;71.03;99270.72;4462987;32;33517;-79
2023/10/15 05:24:35;;;;;;;0.90;0.90;;;;;;;13.88;70.65;99258.62;4460711;32;34124;-80
2023/10/15 05:27:04;;;;;;;2.65;1.27;;;;;;;13.65;70.87;99257.66;4466334;32;33811;-80
2023/10/15 05:29:33;;;;;;;0.90;0.85;;;;;;;13.92;70.60;99275.88;4461020;32;33897;-79
2023/10/15 05:32:01;;;;;;;1.70;1.20;;;;;;;13.87;69.99;99275.19;4466314;32;33385;-78
2023/10/15 05:34:32;;;;;;;0.85;0.77;;;;;;;13.90;70.75;99282.91;4465327;32;32906;-78
2023/10/15 05:37:02;;;;;;;0.95;0.95;;;;;;;13.94;71.18;99299.28;4469406;32;33083;-79
2023/10/15 05:39:30;;;;;;;1.67;1.58;;;;;;;13.83;71.06;99308.31;4472929;32;34317;-79
2023/10/15 05:41:59;;;;;;;1.23;1.05;;;;;;;13.89;70.36;99296.81;4463533;32;34209;-80
2023/10/15 05:44:31;;;;;;;2.45;1.08;;;;;;;13.90;70.54;99313.34;4466930;32;33697;-80
2023/10/15 05:47:00;;;;;;;1.65;1.08;;;;;;;13.43;71.69;99316.53;4461256;32;32624;-80
2023/10/15 05:49:29;;;;;;;2.62;1.58;;;;;;;13.60;71.24;99313.41;4465486;32;34463;-79
2023/10/15 05:51:59;;;;;;;1.10;0.93;;;;;;;13.64;71.59;99318.47;4461626;32;34347;-80
2023/10/15 05:54:28;;;;;;;1.00;0.90;;;;;;;13.43;72.87;99304.41;4474026;32;33378;-79
2023/10/15 05:56:57;;;;;;;1.42;1.00;;;;;;;13.70;70.33;99313.97;4472270;32;33451;-81
2023/10/15 05:59:25;;;;;;;2.75;1.20;;;;;;;13.63;69.61;99322.00;4479500;32;34567;-79
2023/10/15 06:01:54;;;;;;;1.00;0.85;;;;;;;13.71;70.01;99344.38;4474294;32;33635;-79
2023/10/15 06:04:23;;;;;;;1.23;1.15;;;;;;;13.38;71.02;99347.94;4467416;32;33166;-79
2023/10/15 06:06:52;;;;;;;1.62;1.52;;;;;;;13.12;72.41;99353.03;4462077;32;34139;-79
2023/10/15 06:09:22;;;;;;;1.27;1.17;;;;;;;13.26;71.48;99358.69;4471419;32;33603;-79
2023/10/15 06:11:51;;;;;;;5.25;2.10;;;;;;;12.98;72.79;99366.47;4464014;32;34235;-79
2023/10/15 06:14:23;;;;;;;2.92;1.10;;;;;;;12.87;73.16;99356.34;4468098;32;33266;-81
2023/10/15 06:16:52;;;;;;;2.45;1.08;;;;;;;12.95;72.75;99359.59;4459508;32;33612;-80
2023/10/15 06:19:21;;;;;;;3.42;1.00;;;;;;;13.08;72.34;99365.31;4462079;32;33750;-79
2023/10/15 06:21:50;;;;;;;5.03;1.10;;;;;;;12.99;72.78;99361.22;4467835;32;33520;-79
2023/10/15 06:24:19;;;;;;;1.20;1.10;;;;;;;12.97;72.54;99357.78;4464058;32;33200;-80
2023/10/15 06:26:49;;;;;;;1.20;1.10;;;;;;;12.73;74.04;99363.69;4466521;32;33610;-79
2023/10/15 06:29:18;;;;;;;1.70;1.10;;;;;;;12.95;73.47;99358.72;4464947;32;33673;-79
2023/10/15 06:31:47;;;;;;;1.30;0.90;;;;;;;13.13;72.94;99347.81;4466417;32;34479;-80
2023/10/15 06:34:16;;;;;;;1.67;1.10;;;;;;;13.12;71.44;99335.69;4463527;32;33547;-80
2023/10/15 06:36:47;;;;;;;1.50;0.98;;;;;;;12.86;73.06;99340.78;4462444;32;33572;-80
2023/10/15 06:39:16;;;;;;;3.40;0.82;;;;;;;12.62;72.59;99348.38;4463059;32;34000;-80
2023/10/15 06:41:45;;;;;;;2.65;1.30;;;;;;;12.70;71.92;99348.16;4466177;32;34096;-80
2023/10/15 06:44:16;;;;;;;1.20;0.93;;;;;;;12.81;72.54;99346.97;4470559;32;33805;-80
2023/10/15 06:46:45;;;;;;;2.47;0.90;;;;;;;13.28;71.25;99343.06;4467562;32;33758;-81
2023/10/15 06:49:15;;;;;;;2.33;1.00;;;;;;;13.50;70.31;99353.69;4466883;32;33922;-81
2023/10/15 06:51:44;;;;;;;2.08;1.10;;;;;;;13.14;71.45;99359.91;4464950;32;34214;-81
2023/10/15 06:54:13;;;;;;;3.53;1.08;;;;;;;12.92;71.87;99343.22;4472880;32;32612;-79
2023/10/15 06:56:41;;;;;;;2.35;1.17;;;;;;;13.25;69.97;99330.97;4466907;32;34591;-80
2023/10/15 06:59:11;;;;;;;3.58;2.00;;;;;;;13.05;70.03;99339.38;4465234;32;34575;-80
2023/10/15 07:01:42;;;;;;;1.83;0.82;;;;;;;12.78;70.87;99336.66;4470414;32;33717;-80
2023/10/15 07:04:12;;;;;;;1.10;1.00;;;;;;;12.87;70.21;99325.09;4464992;32;33288;-79
2023/10/15 07:06:41;;;;;;;2.22;0.95;;;;;;;12.81;69.30;99320.09;4475425;32;33295;-81
2023/10/15 07:09:13;;;;;;;2.35;0.95;;;;;;;12.83;69.63;99323.50;4465363;32;33714;-80
2023/10/15 07:11:42;;;;;;;1.70;1.27;;;;;;;12.82;68.48;99314.81;4468159;32;34159;-79
2023/10/15 07:14:11;;;;;;;1.77;0.95;;;;;;;12.91;67.00;99305.91;4466948;32;33947;-80
2023/10/15 07:16:44;;;;;;;2.12;1.10;;;;;;;12.73;67.71;99320.31;4471268;32;34120;-81
2023/10/15 07:19:13;;;;;;;2.45;1.55;;;;;;;12.89;66.45;99370.19;4465517;32;34422;-81
2023/10/15 07:21:41;;;;;;;1.60;1.00;;;;;;;13.20;65.26;99382.34;4467209;32;33592;-79
2023/10/15 07:24:11;;;;;;;3.25;1.80;;;;;;;13.34;66.17;99393.25;4465740;32;33673;-79
2023/10/15 07:26:40;;;;;;;1.55;1.20;;;;;;;13.36;66.40;99401.00;4470907;32;34506;-79
2023/10/15 07:29:09;;;;;;;2.50;0.88;;;;;;;13.47;66.97;99404.16;4473115;32;34015;-79
2023/10/15 07:31:38;;;;;;;0.90;0.80;;;;;;;13.43;67.48;99415.56;4471275;32;33550;-80
2023/10/15 07:34:09;;;;;;;3.30;2.37;;;;;;;13.42;67.55;99404.28;4467851;32;33552;-79
2023/10/15 07:36:38;;;;;;;3.10;1.30;;;;;;;13.17;67.76;99416.31;4475497;32;34215;-80
2023/10/15 07:39:07;;;;;;;0.80;0.80;;;;;;;13.37;67.96;99418.38;4475473;32;34019;-81
2023/10/15 07:41:37;;;;;;;1.50;0.85;;;;;;;13.62;66.89;99429.75;4463647;32;33466;-80
2023/10/15 07:44:07;;;;;;;0.90;0.80;;;;;;;13.70;66.49;99428.66;4460662;32;33387;-80
2023/10/15 07:46:36;;;;;;;2.22;0.80;;;;;;;13.76;66.14;99413.72;4464770;32;33468;-81
2023/10/15 07:49:05;;;;;;;2.97;0.90;;;;;;;13.61;66.06;99411.56;4473650;32;33926;-80
2023/10/15 07:51:35;;;;;;;1.17;0.77;;;;;;;13.55;66.72;99417.81;4468148;32;34263;-80
2023/10/15 07:54:04;;;;;;;0.80;0.80;;;;;;;13.64;66.03;99404.50;4463374;32;33488;-81
2023/10/15 07:56:34;;;;;;;0.98;0.82;;;;;;;13.66;66.52;99404.47;4464255;32;35463;-80
2023/10/15 07:59:07;;;;;;;3.45;1.10;;;;;;;13.70;66.36;99402.59;4461539;32;33958;-79
2023/10/15 08:01:37;;;;;;;1.75;0.90;;;;;;;13.73;66.13;99405.13;4469032;32;33401;-80
2023/10/15 08:04:10;;;;;;;4.12;1.17;;;;;;;13.89;66.01;99395.91;4465750;32;34127;-79
2023/10/15 08:06:40;;;;;;;2.15;1.20;;;;;;;13.84;66.64;99396.09;4467422;32;34625;-80
2023/10/15 08:09:14;;;;;;;0.93;0.77;;;;;;;13.97;65.77;99382.66;4464107;32;34024;-80
2023/10/15 08:11:43;;;;;;;1.77;0.95;;;;;;;13.93;66.23;99370.63;4471828;32;33490;-81
2023/10/15 08:14:12;;;;;;;2.40;1.02;;;;;;;14.18;64.17;99392.41;4468374;32;33325;-80
2023/10/15 08:16:41;;;;;;;1.00;0.90;;;;;;;14.03;64.89;99398.09;4464895;32;34471;-80
2023/10/15 08:19:09;;;;;;;2.10;1.33;;;;;;;14.29;64.05;99412.91;4465437;32;33337;-79
2023/10/15 08:21:39;;;;;;;2.25;1.37;;;;;;;14.32;64.44;99412.81;4464969;32;33522;-80
2023/10/15 08:24:09;;;;;;;2.77;0.90;;;;;;;14.55;62.63;99401.63;4467602;32;33225;-79
2023/10/15 08:26:38;;;;;;;1.40;1.00;;;;;;;14.39;64.49;99395.19;4469886;32;33532;-80
2023/10/15 08:29:09;;;;;;;2.05;1.20;;;;;;;14.44;63.12;99394.13;4464370;32;33403;-80
2023/10/15 08:31:38;;;;;;;2.25;0.93;;;;;;;14.01;64.70;99384.25;4469045;32;33465;-80
2023/10/15 08:34:07;;;;;;;3.30;0.75;;;;;;;14.35;62.99;99393.56;4467927;32;33032;-80
2023/10/15 08:36:36;;;;;;;1.67;0.75;;;;;;;14.52;61.41;99389.50;4468561;32;33534;-80
2023/10/15 08:39:07;;;;;;;0.77;0.77;;;;;;;14.31;62.47;99387.62;4473530;32;32427;-80
2023/10/15 08:41:39;;;;;;;0.85;0.80;;;;;;;14.35;61.35;99402.25;4460953;32;33846;-79
2023/10/15 08:44:08;;;;;;;1.80;1.05;;;;;;;13.94;62.27;99404.47;4462641;32;33393;-81
2023/10/15 08:46:38;;;;;;;0.90;0.90;;;;;;;13.88;62.55;99400.28;4471753;32;33638;-79
2023/10/15 08:49:08;;;;;;;2.30;1.10;;;;;;;13.94;62.52;99401.00;4460176;32;34094;-81
2023/10/15 08:51:37;;;;;;;0.85;0.85;;;;;;;14.02;62.15;99399.00;4462099;32;34301;-80
2023/10/15 08:54:11;;;;;;;1.37;0.75;;;;;;;13.66;63.37;99405.31;4463297;32;33898;-80
2023/10/15 08:56:43;;;;;;;0.95;0.80;;;;;;;13.84;61.58;99408.25;4465201;32;33284;-81
2023/10/15 08:59:12;;;;;;;0.90;0.90;;;;;;;13.95;61.61;99411.38;4468592;32;34401;-79
2023/10/15 09:01:42;;;;;;;3.50;1.40;;;;;;;13.91;61.99;99401.94;4469020;32;33648;-81
2023/10/15 09:04:12;;;;;;;5.97;1.40;;;;;;;13.65;62.56;99401.00;4471351;32;33366;-81
2023/10/15 09:06:41;;;;;;;1.67;0.90;;;;;;;13.86;60.95;99396.88;4461440;32;34328;-79
2023/10/15 09:09:11;;;;;;;0.93;0.73;;;;;;;13.97;61.56;99387.88;4469098;32;33894;-80
2023/10/15 09:11:42;;;;;;;1.63;0.83;;;;;;;14.20;59.59;99385.34;4451342;32;33131;-80
2023/10/15 09:14:13;;;;;;;0.80;0.80;;;;;;;14.25;60.01;99387.81;4468120;32;34191;-80
2023/10/15 09:16:46;;;;;;;1.58;0.80;;;;;;;14.09;59.64;99374.44;4462921;32;33609;-79
2023/10/15 09:19:15;;;;;;;1.08;0.80;;;;;;;14.01;60.09;99374.69;4467072;32;33934;-81
2023/10/15 09:21:45;;;;;;;4.87;1.25;;;;;;;14.15;59.56;99376.81;4472185;32;33396;-81
2023/10/15 09:24:15;;;;;;;3.65;1.00;;;;;;;14.25;57.99;99382.59;4466983;32;32980;-79
2023/10/15 09:26:45;;;;;;;1.85;1.00;;;;;;;14.14;58.56;99400.38;4476189;32;33773;-79
2023/10/15 09:29:20;;;;;;;4.50;1.25;;;;;;;14.39;59.19;99405.63;4467079;32;33533;-81
2023/10/15 09:31:56;;;;;;;1.45;1.10;;;;;;;14.67;58.13;99402.97;4472184;32;33475;-80
2023/10/15 09:34:26;;;;;;;1.23;0.88;;;;;;;14.51;58.60;99406.06;4468900;32;34666;-79
2023/10/15 09:36:55;;;;;;;3.92;0.90;;;;;;;14.77;58.12;99396.53;4472579;32;33936;-80
2023/10/15 09:39:27;;;;;;;2.30;0.93;;;;;;;14.85;58.17;99391.03;4451905;32;34276;-80
2023/10/15 09:41:56;;;;;;;3.08;1.08;;;;;;;14.90;57.94;99379.50;4466345;32;33606;-80
2023/10/15 09:44:25;;;;;;;1.30;0.90;;;;;;;14.52;57.90;99386.91;4471817;32;33135;-80
2023/10/15 09:46:56;;;;;;;1.00;0.95;;;;;;;14.59;57.37;99387.56;4460571;32;31812;-81
2023/10/15 09:49:26;;;;;;;0.93;0.85;;;;;;;14.37;56.79;99402.22;4463938;32;33859;-79
2023/10/15 09:51:55;;;;;;;0.70;0.70;;;;;;;14.24;56.24;99404.38;4461459;32;33913;-80
2023/10/15 09:54:26;;;;;;;0.80;0.80;;;;;;;14.16;57.08;99411.59;4471593;32;34205;-80
2023/10/15 09:56:56;;;;;;;1.58;0.95;;;;;;;14.04;56.93;99413.72;4461738;32;34597;-79
2023/10/15 09:59:25;;;;;;;2.45;1.00;;;;;;;14.01;57.60;99415.53;4466236;32;33755;-79
2023/10/15 10:01:55;;;;;;;1.58;1.05;;;;;;;13.71;58.30;99419.97;4462627;32;34558;-79
2023/10/15 10:04:48;;;;;;;1.77;1.10;;;;;;;13.96;57.86;99433.09;4460918;32;33374;-80
2023/10/15 10:07:39;;;;;;;1.70;1.23;;;;;;;14.27;57.64;99419.94;4463243;32;33721;-80
2023/10/15 10:10:39;;;;;;;4.97;1.12;;;;;;;14.22;57.48;99414.84;4466704;32;33716;-80
2023/10/15 10:13:23;;;;;;;2.10;1.37;;;;;;;14.28;57.05;99417.28;4388250;32;32566;-79
2023/10/15 10:15:58;;;;;;;4.93;1.30;;;;;;;14.35;55.85;99422.28;4391928;32;32459;-81
2023/10/15 10:18:28;;;;;;;3.25;2.25;;;;;;;14.26;56.50;99423.47;4392663;32;33594;-80
2023/10/15 10:21:11;;;;;;;2.62;1.92;;;;;;;14.38;55.34;99423.06;4390968;32;33468;-80
2023/10/15 10:23:40;;;;;;;1.50;0.90;;;;;;;14.42;56.09;99424.63;4390767;32;34676;-81
2023/10/15 10:26:19;;;;;;;2.22;0.90;;;;;;;14.49;52.96;99428.75;4400138;32;34090;-80
2023/10/15 10:28:48;;;;;;;1.95;1.40;;;;;;;14.79;53.00;99420.84;4395179;32;34495;-80
2023/10/15 10:31:18;;;;;;;3.12;1.08;;;;;;;14.61;53.50;99424.91;4380885;32;33580;-80
2023/10/15 10:33:50;;;;;;;3.03;0.73;;;;;;;14.21;53.77;99417.53;4393095;32;33075;-80
2023/10/15 10:36:21;;;;;;;1.10;0.70;;;;;;;14.54;53.62;99425.19;4392636;32;33780;-80
2023/10/15 10:39:00;;;;;;;4.25;0.93;;;;;;;14.64;53.43;99413.50;4399689;32;33380;-79
2023/10/15 10:41:38;;;;;;;5.47;1.67;;;;;;;14.60;51.01;99414.53;4390994;32;33405;-80
2023/10/15 10:44:08;;;;;;;3.30;1.77;;;;;;;14.51;52.90;99419.13;4393093;32;34210;-80
2023/10/15 10:46:53;;;;;;;1.52;1.10;;;;;;;14.54;52.96;99422.56;4384426;32;33819;-81
2023/10/15 10:49:30;;;;;;;1.67;1.08;;;;;;;14.48;53.66;99418.38;4390023;32;33599;-80
2023/10/15 10:52:14;;;;;;;1.90;1.00;;;;;;;14.58;53.65;99421.56;4468313;32;33530;-82
2023/10/15 10:54:44;;;;;;;3.05;1.20;;;;;;;14.40;53.19;99421.25;4462455;32;33878;-81
2023/10/15 10:57:18;;;;;;;1.25;1.10;;;;;;;14.22;53.97;99427.91;4458764;32;33342;-81
2023/10/15 10:59:48;;;;;;;4.93;1.10;;;;;;;14.39;54.03;99426.50;4459302;32;33373;-81
2023/10/15 11:02:20;;;;;;;1.45;1.17;;;;;;;14.54;53.72;99423.41;4460559;32;34517;-81
2023/10/15 11:04:49;;;;;;;;;;;;;;;14.65;54.40;99423.91;4465133;32;33591;-80
2023/10/15 11:07:18;;;;;;;1.10;1.00;;;;;;;14.49;54.08;99423.53;4460541;32;32925;-80
2023/10/15 11:09:47;;;;;;;2.15;1.45;;;;;;;14.37;53.93;99428.31;4459030;31;33849;-80
2023/10/15 11:12:18;;;;;;;3.42;1.23;;;;;;;14.26;54.80;99436.50;4460804;32;33980;-79
2023/10/15 11:14:47;;;;;;;5.00;1.02;;;;;;;14.17;54.11;99431.56;4465228;32;34620;-80
2023/10/15 11:17:15;;;;;;;4.00;2.00;;;;;;;14.09;53.98;99429.22;4456971;32;32757;-80
2023/10/15 11:19:44;;;;;;;1.37;1.00;;;;;;;14.14;54.18;99432.53;4460230;32;33546;-81
2023/10/15 11:22:14;;;;;;;1.70;1.23;;;;;;;14.33;53.98;99421.47;4460770;32;34252;-80
2023/10/15 11:24:44;;;;;;;3.00;1.00;;;;;;;14.55;52.20;99422.53;4460872;32;33461;-80
2023/10/15 11:27:13;;;;;;;0.95;0.93;;;;;;;14.53;53.16;99419.06;4466737;32;33416;-81
2023/10/15 11:29:44;;;;;;;1.35;1.10;;;;;;;14.91;52.75;99415.19;4459166;32;34754;-81
2023/10/15 11:32:13;;;;;;;2.53;1.05;;;;;;;15.15;51.94;99423.06;4459081;32;34050;-81
2023/10/15 11:34:43;;;;;;;1.17;1.02;;;;;;;15.31;51.10;99415.50;4459401;32;34137;-80
2023/10/15 11:37:16;;;;;;;0.80;0.80;;;;;;;15.10;51.35;99420.59;4465510;32;33726;-81
2023/10/15 11:39:48;;;;;;;1.48;0.90;;;;;;;15.08;51.90;99422.41;4461279;32;33044;-81
2023/10/15 11:42:19;;;;;;;3.00;1.10;;;;;;;15.17;51.54;99430.81;4472670;32;33556;-80
2023/10/15 11:44:55;;;;;;;4.03;1.42;;;;;;;14.67;51.88;99429.09;4473511;32;33452;-80
2023/10/15 11:47:27;;;;;;;0.70;0.70;;;;;;;14.63;52.26;99427.47;4461407;32;33922;-81
2023/10/15 11:49:59;;;;;;;0.70;0.70;;;;;;;14.48;52.44;99428.81;4467564;32;33892;-81
2023/10/15 11:52:28;;;;;;;1.77;1.15;;;;;;;14.61;53.11;99426.69;4460670;32;34719;-82
2023/10/15 11:54:57;;;;;;;2.17;0.98;;;;;;;14.97;51.91;99426.31;4460709;32;34590;-81